sensor_id;sensor_type;location;lat;lon;timestamp;temperature;humidity
12887;DHT22;6511;49.746;6.094;2022-08-18T00:02:06;15.40;99.90
12887;DHT22;6511;49.746;6.094;2022-08-18T00:04:33;15.20;99.90
12887;DHT22;6511;49.746;6.094;2022-08-18T00:07:09;15.10;99.90
12887;DHT22;6511;49.746;6.094;2022-08-18T00:09:36;15.10;99.90
12887;DHT22;6511;49.746;6.094;2022-08-18T00:12:08;15.20;99.90
12887;DHT22;6511;49.746;6.094;2022-08-18T00:14:34;15.30;99.90
12887;DHT22;6511;49.746;6.094;2022-08-18T00:16:59;15.30;99.90
12887;DHT22;6511;49.746;6.094;2022-08-18T00:19:25;15.40;99.90
12887;DHT22;6511;49.746;6.094;2022-08-18T00:21:51;15.60;99.90
12887;DHT22;6511;49.746;6.094;2022-08-18T00:24:17;15.70;99.90
12887;DHT22;6511;49.746;6.094;2022-08-18T00:26:43;15.60;99.90
12887;DHT22;6511;49.746;6.094;2022-08-18T00:29:08;15.50;99.90
12887;DHT22;6511;49.746;6.094;2022-08-18T00:31:34;15.30;99.90
12887;DHT22;6511;49.746;6.094;2022-08-18T00:34:00;15.30;99.90
12887;DHT22;6511;49.746;6.094;2022-08-18T00:36:26;15.10;99.90
12887;DHT22;6511;49.746;6.094;2022-08-18T00:38:52;15.00;99.90
12887;DHT22;6511;49.746;6.094;2022-08-18T00:41:19;15.00;99.90
12887;DHT22;6511;49.746;6.094;2022-08-18T00:43:47;15.00;99.90
12887;DHT22;6511;49.746;6.094;2022-08-18T00:46:29;15.10;99.90
12887;DHT22;6511;49.746;6.094;2022-08-18T00:48:56;15.10;99.90
12887;DHT22;6511;49.746;6.094;2022-08-18T00:51:57;15.10;99.90
12887;DHT22;6511;49.746;6.094;2022-08-18T00:54:27;15.20;99.90
12887;DHT22;6511;49.746;6.094;2022-08-18T00:56:58;15.20;99.90
12887;DHT22;6511;49.746;6.094;2022-08-18T00:59:52;15.30;99.90
12887;DHT22;6511;49.746;6.094;2022-08-18T01:02:25;15.40;99.90
12887;DHT22;6511;49.746;6.094;2022-08-18T01:04:59;15.40;99.90
12887;DHT22;6511;49.746;6.094;2022-08-18T01:07:38;15.10;99.90
12887;DHT22;6511;49.746;6.094;2022-08-18T01:10:07;14.90;99.90
12887;DHT22;6511;49.746;6.094;2022-08-18T01:12:32;14.80;99.90
12887;DHT22;6511;49.746;6.094;2022-08-18T01:14:59;14.60;99.90
12887;DHT22;6511;49.746;6.094;2022-08-18T01:17:25;14.50;99.90
12887;DHT22;6511;49.746;6.094;2022-08-18T01:20:14;14.40;99.90
12887;DHT22;6511;49.746;6.094;2022-08-18T01:23:12;14.40;99.90
12887;DHT22;6511;49.746;6.094;2022-08-18T01:25:39;14.50;99.90
12887;DHT22;6511;49.746;6.094;2022-08-18T01:28:24;14.60;99.90
12887;DHT22;6511;49.746;6.094;2022-08-18T01:30:53;14.70;99.90
12887;DHT22;6511;49.746;6.094;2022-08-18T01:33:24;14.70;99.90
12887;DHT22;6511;49.746;6.094;2022-08-18T01:35:59;14.70;99.90
12887;DHT22;6511;49.746;6.094;2022-08-18T01:38:25;14.60;99.90
12887;DHT22;6511;49.746;6.094;2022-08-18T01:40:51;14.50;99.90
12887;DHT22;6511;49.746;6.094;2022-08-18T01:43:19;14.50;99.90
12887;DHT22;6511;49.746;6.094;2022-08-18T01:45:45;14.50;99.90
12887;DHT22;6511;49.746;6.094;2022-08-18T01:48:12;14.60;99.90
12887;DHT22;6511;49.746;6.094;2022-08-18T01:50:38;14.50;99.90
12887;DHT22;6511;49.746;6.094;2022-08-18T01:53:09;14.60;99.90
12887;DHT22;6511;49.746;6.094;2022-08-18T01:55:37;14.70;99.90
12887;DHT22;6511;49.746;6.094;2022-08-18T01:58:05;14.70;99.90
12887;DHT22;6511;49.746;6.094;2022-08-18T02:00:32;14.70;99.90
12887;DHT22;6511;49.746;6.094;2022-08-18T02:02:59;14.80;99.90
12887;DHT22;6511;49.746;6.094;2022-08-18T02:05:33;14.70;99.90
12887;DHT22;6511;49.746;6.094;2022-08-18T02:08:00;14.60;99.90
12887;DHT22;6511;49.746;6.094;2022-08-18T02:10:25;14.60;99.90
12887;DHT22;6511;49.746;6.094;2022-08-18T02:12:52;14.50;99.90
12887;DHT22;6511;49.746;6.094;2022-08-18T02:15:17;14.50;99.90
12887;DHT22;6511;49.746;6.094;2022-08-18T02:17:44;14.50;99.90
12887;DHT22;6511;49.746;6.094;2022-08-18T02:20:13;14.30;99.90
12887;DHT22;6511;49.746;6.094;2022-08-18T02:22:40;14.20;99.90
12887;DHT22;6511;49.746;6.094;2022-08-18T02:25:06;14.20;99.90
12887;DHT22;6511;49.746;6.094;2022-08-18T02:27:33;14.20;99.90
12887;DHT22;6511;49.746;6.094;2022-08-18T02:30:00;14.20;99.90
12887;DHT22;6511;49.746;6.094;2022-08-18T02:32:27;14.20;99.90
12887;DHT22;6511;49.746;6.094;2022-08-18T02:34:53;14.20;99.90
12887;DHT22;6511;49.746;6.094;2022-08-18T02:37:19;14.20;99.90
12887;DHT22;6511;49.746;6.094;2022-08-18T02:39:45;14.20;99.90
12887;DHT22;6511;49.746;6.094;2022-08-18T02:42:11;14.10;99.90
12887;DHT22;6511;49.746;6.094;2022-08-18T02:44:39;14.00;99.90
12887;DHT22;6511;49.746;6.094;2022-08-18T02:47:04;14.00;99.90
12887;DHT22;6511;49.746;6.094;2022-08-18T02:49:30;14.10;99.90
12887;DHT22;6511;49.746;6.094;2022-08-18T02:51:56;14.20;99.90
12887;DHT22;6511;49.746;6.094;2022-08-18T02:54:23;14.20;99.90
12887;DHT22;6511;49.746;6.094;2022-08-18T02:56:50;14.20;99.90
12887;DHT22;6511;49.746;6.094;2022-08-18T02:59:20;14.20;99.90
12887;DHT22;6511;49.746;6.094;2022-08-18T03:01:50;14.30;99.90
12887;DHT22;6511;49.746;6.094;2022-08-18T03:04:19;14.30;99.90
12887;DHT22;6511;49.746;6.094;2022-08-18T03:06:45;14.20;99.90
12887;DHT22;6511;49.746;6.094;2022-08-18T03:09:13;14.20;99.90
12887;DHT22;6511;49.746;6.094;2022-08-18T03:11:40;14.20;99.90
12887;DHT22;6511;49.746;6.094;2022-08-18T03:14:06;14.30;99.90
12887;DHT22;6511;49.746;6.094;2022-08-18T03:16:33;14.20;99.90
12887;DHT22;6511;49.746;6.094;2022-08-18T03:19:00;13.80;99.90
12887;DHT22;6511;49.746;6.094;2022-08-18T03:21:28;13.70;99.90
12887;DHT22;6511;49.746;6.094;2022-08-18T03:23:56;13.80;99.90
12887;DHT22;6511;49.746;6.094;2022-08-18T03:26:23;13.80;99.90
12887;DHT22;6511;49.746;6.094;2022-08-18T03:28:50;13.80;99.90
12887;DHT22;6511;49.746;6.094;2022-08-18T03:31:18;13.80;99.90
12887;DHT22;6511;49.746;6.094;2022-08-18T03:33:45;13.80;99.90
12887;DHT22;6511;49.746;6.094;2022-08-18T03:36:17;13.70;99.90
12887;DHT22;6511;49.746;6.094;2022-08-18T03:38:44;13.80;99.90
12887;DHT22;6511;49.746;6.094;2022-08-18T03:41:13;13.70;99.90
12887;DHT22;6511;49.746;6.094;2022-08-18T03:43:39;13.70;99.90
12887;DHT22;6511;49.746;6.094;2022-08-18T03:46:08;13.80;99.90
12887;DHT22;6511;49.746;6.094;2022-08-18T03:48:35;13.90;99.90
12887;DHT22;6511;49.746;6.094;2022-08-18T03:53:33;14.10;99.90
12887;DHT22;6511;49.746;6.094;2022-08-18T03:55:59;14.20;99.90
12887;DHT22;6511;49.746;6.094;2022-08-18T03:58:25;14.30;99.90
12887;DHT22;6511;49.746;6.094;2022-08-18T04:00:51;14.30;99.90
12887;DHT22;6511;49.746;6.094;2022-08-18T04:03:17;14.40;99.90
12887;DHT22;6511;49.746;6.094;2022-08-18T04:05:42;14.40;99.90
12887;DHT22;6511;49.746;6.094;2022-08-18T04:08:09;14.20;99.90
12887;DHT22;6511;49.746;6.094;2022-08-18T04:10:34;14.20;99.90
12887;DHT22;6511;49.746;6.094;2022-08-18T04:13:01;14.20;99.90
12887;DHT22;6511;49.746;6.094;2022-08-18T04:15:30;14.40;99.90
12887;DHT22;6511;49.746;6.094;2022-08-18T04:18:00;14.40;99.90
12887;DHT22;6511;49.746;6.094;2022-08-18T04:20:29;14.40;99.90
12887;DHT22;6511;49.746;6.094;2022-08-18T04:22:57;14.30;99.90
12887;DHT22;6511;49.746;6.094;2022-08-18T04:25:23;14.20;99.90
12887;DHT22;6511;49.746;6.094;2022-08-18T04:27:50;14.20;99.90
12887;DHT22;6511;49.746;6.094;2022-08-18T04:30:16;14.20;99.90
12887;DHT22;6511;49.746;6.094;2022-08-18T04:32:42;14.40;99.90
12887;DHT22;6511;49.746;6.094;2022-08-18T04:35:08;14.30;99.90
12887;DHT22;6511;49.746;6.094;2022-08-18T04:37:36;14.40;99.90
12887;DHT22;6511;49.746;6.094;2022-08-18T04:40:03;14.50;99.90
12887;DHT22;6511;49.746;6.094;2022-08-18T04:42:29;14.40;99.90
12887;DHT22;6511;49.746;6.094;2022-08-18T04:44:55;14.30;99.90
12887;DHT22;6511;49.746;6.094;2022-08-18T04:47:22;14.40;99.90
12887;DHT22;6511;49.746;6.094;2022-08-18T04:49:48;14.40;99.90
12887;DHT22;6511;49.746;6.094;2022-08-18T04:52:15;14.40;99.90
12887;DHT22;6511;49.746;6.094;2022-08-18T04:55:00;14.30;99.90
12887;DHT22;6511;49.746;6.094;2022-08-18T04:57:26;14.40;99.90
12887;DHT22;6511;49.746;6.094;2022-08-18T04:59:53;14.40;99.90
12887;DHT22;6511;49.746;6.094;2022-08-18T05:02:20;14.50;99.90
12887;DHT22;6511;49.746;6.094;2022-08-18T05:04:46;14.40;99.90
12887;DHT22;6511;49.746;6.094;2022-08-18T05:07:17;14.40;99.90
12887;DHT22;6511;49.746;6.094;2022-08-18T05:09:43;14.50;99.90
12887;DHT22;6511;49.746;6.094;2022-08-18T05:12:12;14.50;99.90
12887;DHT22;6511;49.746;6.094;2022-08-18T05:14:43;14.50;99.90
12887;DHT22;6511;49.746;6.094;2022-08-18T05:17:09;14.70;99.90
12887;DHT22;6511;49.746;6.094;2022-08-18T05:19:35;14.70;99.90
12887;DHT22;6511;49.746;6.094;2022-08-18T05:22:01;14.80;99.90
12887;DHT22;6511;49.746;6.094;2022-08-18T05:24:29;14.80;99.90
12887;DHT22;6511;49.746;6.094;2022-08-18T05:26:55;14.90;99.90
12887;DHT22;6511;49.746;6.094;2022-08-18T05:29:21;15.00;99.90
12887;DHT22;6511;49.746;6.094;2022-08-18T05:31:48;15.00;99.90
12887;DHT22;6511;49.746;6.094;2022-08-18T05:34:15;15.10;99.90
12887;DHT22;6511;49.746;6.094;2022-08-18T05:44:21;15.20;99.90
12887;DHT22;6511;49.746;6.094;2022-08-18T05:47:03;15.20;99.90
12887;DHT22;6511;49.746;6.094;2022-08-18T05:49:29;15.20;99.90
12887;DHT22;6511;49.746;6.094;2022-08-18T05:52:28;15.30;99.90
12887;DHT22;6511;49.746;6.094;2022-08-18T05:55:02;15.40;99.90
12887;DHT22;6511;49.746;6.094;2022-08-18T05:57:57;15.40;99.90
12887;DHT22;6511;49.746;6.094;2022-08-18T06:00:24;15.40;99.90
12887;DHT22;6511;49.746;6.094;2022-08-18T06:05:35;15.50;99.90
12887;DHT22;6511;49.746;6.094;2022-08-18T06:08:07;15.60;99.90
12887;DHT22;6511;49.746;6.094;2022-08-18T06:10:35;15.60;99.90
12887;DHT22;6511;49.746;6.094;2022-08-18T06:13:01;15.70;99.90
12887;DHT22;6511;49.746;6.094;2022-08-18T06:26:49;16.10;99.90
12887;DHT22;6511;49.746;6.094;2022-08-18T06:38:02;16.50;99.90
12887;DHT22;6511;49.746;6.094;2022-08-18T06:40:49;16.50;99.90
12887;DHT22;6511;49.746;6.094;2022-08-18T06:43:25;16.50;99.90
12887;DHT22;6511;49.746;6.094;2022-08-18T06:45:52;16.60;99.90
12887;DHT22;6511;49.746;6.094;2022-08-18T06:48:39;16.50;99.90
12887;DHT22;6511;49.746;6.094;2022-08-18T06:51:09;16.60;99.90
12887;DHT22;6511;49.746;6.094;2022-08-18T06:56:47;16.80;99.90
12887;DHT22;6511;49.746;6.094;2022-08-18T06:59:29;16.80;99.90
12887;DHT22;6511;49.746;6.094;2022-08-18T07:02:23;16.90;99.90
12887;DHT22;6511;49.746;6.094;2022-08-18T07:05:12;17.00;99.90
12887;DHT22;6511;49.746;6.094;2022-08-18T07:07:41;17.10;99.90
12887;DHT22;6511;49.746;6.094;2022-08-18T07:12:39;17.10;99.90
12887;DHT22;6511;49.746;6.094;2022-08-18T07:15:06;17.10;99.90
12887;DHT22;6511;49.746;6.094;2022-08-18T07:17:36;17.30;99.90
12887;DHT22;6511;49.746;6.094;2022-08-18T07:20:27;17.30;99.90
12887;DHT22;6511;49.746;6.094;2022-08-18T07:22:56;17.40;99.90
12887;DHT22;6511;49.746;6.094;2022-08-18T07:25:45;17.40;99.90
12887;DHT22;6511;49.746;6.094;2022-08-18T07:28:28;17.40;99.90
12887;DHT22;6511;49.746;6.094;2022-08-18T07:31:11;17.60;99.90
12887;DHT22;6511;49.746;6.094;2022-08-18T07:33:40;17.80;99.90
12887;DHT22;6511;49.746;6.094;2022-08-18T07:36:08;17.70;99.90
12887;DHT22;6511;49.746;6.094;2022-08-18T07:38:35;17.80;99.90
12887;DHT22;6511;49.746;6.094;2022-08-18T07:46:57;17.90;99.90
12887;DHT22;6511;49.746;6.094;2022-08-18T07:49:27;17.90;99.90
12887;DHT22;6511;49.746;6.094;2022-08-18T07:52:13;18.00;99.90
12887;DHT22;6511;49.746;6.094;2022-08-18T07:55:04;18.30;99.90
12887;DHT22;6511;49.746;6.094;2022-08-18T08:05:38;18.90;99.90
12887;DHT22;6511;49.746;6.094;2022-08-18T08:08:27;19.00;99.90
12887;DHT22;6511;49.746;6.094;2022-08-18T08:11:01;18.90;99.90
12887;DHT22;6511;49.746;6.094;2022-08-18T08:22:09;19.20;99.90
12887;DHT22;6511;49.746;6.094;2022-08-18T08:24:53;19.00;99.90
12887;DHT22;6511;49.746;6.094;2022-08-18T08:27:49;19.20;99.90
12887;DHT22;6511;49.746;6.094;2022-08-18T08:30:20;19.30;99.90
12887;DHT22;6511;49.746;6.094;2022-08-18T08:38:47;19.60;99.90
12887;DHT22;6511;49.746;6.094;2022-08-18T08:41:21;19.80;99.90
12887;DHT22;6511;49.746;6.094;2022-08-18T08:44:14;19.80;99.90
12887;DHT22;6511;49.746;6.094;2022-08-18T08:46:53;20.00;99.90
12887;DHT22;6511;49.746;6.094;2022-08-18T08:54:57;20.30;99.90
12887;DHT22;6511;49.746;6.094;2022-08-18T08:57:33;20.60;99.90
12887;DHT22;6511;49.746;6.094;2022-08-18T09:00:02;20.70;99.90
12887;DHT22;6511;49.746;6.094;2022-08-18T09:05:20;20.80;99.90
12887;DHT22;6511;49.746;6.094;2022-08-18T09:07:56;20.70;99.90
12887;DHT22;6511;49.746;6.094;2022-08-18T09:22:03;21.40;99.90
12887;DHT22;6511;49.746;6.094;2022-08-18T09:24:47;21.40;99.90
12887;DHT22;6511;49.746;6.094;2022-08-18T09:27:43;21.40;99.90
12887;DHT22;6511;49.746;6.094;2022-08-18T09:30:40;21.60;99.90
12887;DHT22;6511;49.746;6.094;2022-08-18T09:35:51;21.80;99.90
12887;DHT22;6511;49.746;6.094;2022-08-18T09:38:22;21.90;99.90
12887;DHT22;6511;49.746;6.094;2022-08-18T09:41:12;22.10;99.90
12887;DHT22;6511;49.746;6.094;2022-08-18T09:44:14;22.10;99.90
12887;DHT22;6511;49.746;6.094;2022-08-18T09:54:26;22.80;99.90
12887;DHT22;6511;49.746;6.094;2022-08-18T10:02:12;22.80;99.90
12887;DHT22;6511;49.746;6.094;2022-08-18T10:04:40;22.80;99.90
12887;DHT22;6511;49.746;6.094;2022-08-18T10:12:43;22.60;99.90
12887;DHT22;6511;49.746;6.094;2022-08-18T10:29:41;23.20;99.90
12887;DHT22;6511;49.746;6.094;2022-08-18T10:34:51;23.30;99.90
12887;DHT22;6511;49.746;6.094;2022-08-18T10:43:08;23.20;99.90
12887;DHT22;6511;49.746;6.094;2022-08-18T10:45:35;23.40;99.90
12887;DHT22;6511;49.746;6.094;2022-08-18T10:48:22;23.40;99.90
12887;DHT22;6511;49.746;6.094;2022-08-18T10:50:49;23.10;99.90
12887;DHT22;6511;49.746;6.094;2022-08-18T10:58:51;23.20;99.90
12887;DHT22;6511;49.746;6.094;2022-08-18T11:01:52;23.40;99.90
12887;DHT22;6511;49.746;6.094;2022-08-18T11:04:36;23.30;99.90
12887;DHT22;6511;49.746;6.094;2022-08-18T11:07:10;23.30;99.90
12887;DHT22;6511;49.746;6.094;2022-08-18T11:09:37;23.40;99.90
12887;DHT22;6511;49.746;6.094;2022-08-18T11:12:03;23.50;99.90
12887;DHT22;6511;49.746;6.094;2022-08-18T11:19:40;23.80;99.90
12887;DHT22;6511;49.746;6.094;2022-08-18T11:22:24;24.20;99.90
12887;DHT22;6511;49.746;6.094;2022-08-18T11:24:50;24.50;99.90
12887;DHT22;6511;49.746;6.094;2022-08-18T11:27:28;24.50;99.90
12887;DHT22;6511;49.746;6.094;2022-08-18T11:29:58;24.60;99.90
12887;DHT22;6511;49.746;6.094;2022-08-18T11:35:02;24.50;99.90
12887;DHT22;6511;49.746;6.094;2022-08-18T11:45:26;25.30;99.90
12887;DHT22;6511;49.746;6.094;2022-08-18T11:53:40;25.30;99.90
12887;DHT22;6511;49.746;6.094;2022-08-18T11:58:43;25.30;99.90
12887;DHT22;6511;49.746;6.094;2022-08-18T12:04:28;25.30;99.90
12887;DHT22;6511;49.746;6.094;2022-08-18T12:12:12;24.90;99.90
12887;DHT22;6511;49.746;6.094;2022-08-18T12:17:21;24.80;99.90
12887;DHT22;6511;49.746;6.094;2022-08-18T12:19:47;25.10;99.90
12887;DHT22;6511;49.746;6.094;2022-08-18T12:22:17;25.20;99.90
12887;DHT22;6511;49.746;6.094;2022-08-18T12:24:43;25.30;99.90
12887;DHT22;6511;49.746;6.094;2022-08-18T12:27:12;25.50;99.90
12887;DHT22;6511;49.746;6.094;2022-08-18T12:29:40;25.60;99.90
12887;DHT22;6511;49.746;6.094;2022-08-18T12:32:06;25.90;99.90
12887;DHT22;6511;49.746;6.094;2022-08-18T12:34:31;25.50;99.90
12887;DHT22;6511;49.746;6.094;2022-08-18T12:36:58;25.60;99.90
12887;DHT22;6511;49.746;6.094;2022-08-18T12:39:29;25.90;99.90
12887;DHT22;6511;49.746;6.094;2022-08-18T12:41:56;25.80;99.90
12887;DHT22;6511;49.746;6.094;2022-08-18T12:44:22;25.70;99.90
12887;DHT22;6511;49.746;6.094;2022-08-18T12:46:48;25.50;99.90
12887;DHT22;6511;49.746;6.094;2022-08-18T12:49:23;25.40;99.90
12887;DHT22;6511;49.746;6.094;2022-08-18T12:51:50;25.60;99.90
12887;DHT22;6511;49.746;6.094;2022-08-18T12:54:17;26.00;99.90
12887;DHT22;6511;49.746;6.094;2022-08-18T12:56:47;26.20;99.90
12887;DHT22;6511;49.746;6.094;2022-08-18T12:59:13;26.40;99.90
12887;DHT22;6511;49.746;6.094;2022-08-18T13:01:39;26.40;99.90
12887;DHT22;6511;49.746;6.094;2022-08-18T13:04:06;26.10;99.90
12887;DHT22;6511;49.746;6.094;2022-08-18T13:06:33;26.40;99.90
12887;DHT22;6511;49.746;6.094;2022-08-18T13:09:00;26.70;99.90
12887;DHT22;6511;49.746;6.094;2022-08-18T13:11:25;26.50;99.90
12887;DHT22;6511;49.746;6.094;2022-08-18T13:13:52;26.40;99.90
12887;DHT22;6511;49.746;6.094;2022-08-18T13:16:18;26.50;99.90
12887;DHT22;6511;49.746;6.094;2022-08-18T13:18:44;27.20;99.90
12887;DHT22;6511;49.746;6.094;2022-08-18T13:21:11;27.00;99.90
12887;DHT22;6511;49.746;6.094;2022-08-18T13:23:38;26.90;99.90
12887;DHT22;6511;49.746;6.094;2022-08-18T13:26:06;27.10;99.90
12887;DHT22;6511;49.746;6.094;2022-08-18T13:28:34;27.30;99.90
12887;DHT22;6511;49.746;6.094;2022-08-18T13:31:00;27.20;99.90
12887;DHT22;6511;49.746;6.094;2022-08-18T13:33:27;26.80;99.90
12887;DHT22;6511;49.746;6.094;2022-08-18T13:35:53;27.00;99.90
12887;DHT22;6511;49.746;6.094;2022-08-18T13:38:19;27.30;99.90
12887;DHT22;6511;49.746;6.094;2022-08-18T13:40:48;27.10;99.90
12887;DHT22;6511;49.746;6.094;2022-08-18T13:43:17;26.90;99.90
12887;DHT22;6511;49.746;6.094;2022-08-18T13:45:43;26.90;99.90
12887;DHT22;6511;49.746;6.094;2022-08-18T13:48:09;26.80;99.90
12887;DHT22;6511;49.746;6.094;2022-08-18T13:50:36;26.80;99.90
12887;DHT22;6511;49.746;6.094;2022-08-18T13:53:11;27.00;99.90
12887;DHT22;6511;49.746;6.094;2022-08-18T13:55:38;26.80;99.90
12887;DHT22;6511;49.746;6.094;2022-08-18T13:58:03;26.80;99.90
12887;DHT22;6511;49.746;6.094;2022-08-18T14:00:33;26.90;99.90
12887;DHT22;6511;49.746;6.094;2022-08-18T14:03:00;27.20;99.90
12887;DHT22;6511;49.746;6.094;2022-08-18T14:05:26;27.10;99.90
12887;DHT22;6511;49.746;6.094;2022-08-18T14:07:52;27.20;99.90
12887;DHT22;6511;49.746;6.094;2022-08-18T14:10:18;27.30;99.90
12887;DHT22;6511;49.746;6.094;2022-08-18T14:12:45;27.10;99.90
12887;DHT22;6511;49.746;6.094;2022-08-18T14:15:13;27.20;99.90
12887;DHT22;6511;49.746;6.094;2022-08-18T14:17:39;27.20;99.90
12887;DHT22;6511;49.746;6.094;2022-08-18T14:20:06;27.30;99.90
12887;DHT22;6511;49.746;6.094;2022-08-18T14:22:53;27.40;99.90
12887;DHT22;6511;49.746;6.094;2022-08-18T14:25:37;27.30;99.90
12887;DHT22;6511;49.746;6.094;2022-08-18T14:28:23;27.10;99.90
12887;DHT22;6511;49.746;6.094;2022-08-18T14:30:49;27.40;99.90
12887;DHT22;6511;49.746;6.094;2022-08-18T14:33:18;27.40;99.90
12887;DHT22;6511;49.746;6.094;2022-08-18T14:35:45;27.30;99.90
12887;DHT22;6511;49.746;6.094;2022-08-18T14:38:12;27.40;99.90
12887;DHT22;6511;49.746;6.094;2022-08-18T14:40:41;27.50;99.90
12887;DHT22;6511;49.746;6.094;2022-08-18T14:43:07;27.50;99.90
12887;DHT22;6511;49.746;6.094;2022-08-18T14:45:33;27.50;99.90
12887;DHT22;6511;49.746;6.094;2022-08-18T14:48:00;27.50;99.90
12887;DHT22;6511;49.746;6.094;2022-08-18T14:50:25;27.40;99.90
12887;DHT22;6511;49.746;6.094;2022-08-18T14:52:51;27.40;99.90
12887;DHT22;6511;49.746;6.094;2022-08-18T14:55:17;27.10;99.90
12887;DHT22;6511;49.746;6.094;2022-08-18T14:57:43;26.90;99.90
12887;DHT22;6511;49.746;6.094;2022-08-18T15:00:15;27.10;99.90
12887;DHT22;6511;49.746;6.094;2022-08-18T15:02:43;27.10;99.90
12887;DHT22;6511;49.746;6.094;2022-08-18T15:05:09;27.20;99.90
12887;DHT22;6511;49.746;6.094;2022-08-18T15:07:35;27.10;99.90
12887;DHT22;6511;49.746;6.094;2022-08-18T15:10:10;27.10;99.90
12887;DHT22;6511;49.746;6.094;2022-08-18T15:12:36;27.00;99.90
12887;DHT22;6511;49.746;6.094;2022-08-18T15:15:04;27.10;99.90
12887;DHT22;6511;49.746;6.094;2022-08-18T15:17:29;26.90;99.90
12887;DHT22;6511;49.746;6.094;2022-08-18T15:19:56;27.10;99.90
12887;DHT22;6511;49.746;6.094;2022-08-18T15:22:22;27.30;99.90
12887;DHT22;6511;49.746;6.094;2022-08-18T15:25:07;27.40;99.90
12887;DHT22;6511;49.746;6.094;2022-08-18T15:27:51;27.40;99.90
12887;DHT22;6511;49.746;6.094;2022-08-18T15:30:18;27.00;99.90
12887;DHT22;6511;49.746;6.094;2022-08-18T15:32:47;27.10;99.90
12887;DHT22;6511;49.746;6.094;2022-08-18T15:35:14;27.10;99.90
12887;DHT22;6511;49.746;6.094;2022-08-18T15:37:42;27.00;99.90
12887;DHT22;6511;49.746;6.094;2022-08-18T15:40:15;27.00;99.90
12887;DHT22;6511;49.746;6.094;2022-08-18T15:42:51;27.20;99.90
12887;DHT22;6511;49.746;6.094;2022-08-18T15:45:25;27.00;99.90
12887;DHT22;6511;49.746;6.094;2022-08-18T15:47:52;26.90;99.90
12887;DHT22;6511;49.746;6.094;2022-08-18T15:50:18;26.70;99.90
12887;DHT22;6511;49.746;6.094;2022-08-18T15:52:58;26.90;99.90
12887;DHT22;6511;49.746;6.094;2022-08-18T15:55:27;26.80;99.90
12887;DHT22;6511;49.746;6.094;2022-08-18T15:57:53;26.70;99.90
12887;DHT22;6511;49.746;6.094;2022-08-18T16:00:20;26.80;99.90
12887;DHT22;6511;49.746;6.094;2022-08-18T16:02:55;26.50;99.90
12887;DHT22;6511;49.746;6.094;2022-08-18T16:05:24;26.60;99.90
12887;DHT22;6511;49.746;6.094;2022-08-18T16:07:50;26.60;99.90
12887;DHT22;6511;49.746;6.094;2022-08-18T16:10:18;26.70;99.90
12887;DHT22;6511;49.746;6.094;2022-08-18T16:12:45;26.40;99.90
12887;DHT22;6511;49.746;6.094;2022-08-18T16:15:14;26.30;99.90
12887;DHT22;6511;49.746;6.094;2022-08-18T16:17:40;26.30;99.90
12887;DHT22;6511;49.746;6.094;2022-08-18T16:20:06;26.10;99.90
12887;DHT22;6511;49.746;6.094;2022-08-18T16:22:34;26.20;99.90
12887;DHT22;6511;49.746;6.094;2022-08-18T16:24:59;26.00;99.90
12887;DHT22;6511;49.746;6.094;2022-08-18T16:27:27;26.10;99.90
12887;DHT22;6511;49.746;6.094;2022-08-18T16:29:56;26.10;99.90
12887;DHT22;6511;49.746;6.094;2022-08-18T16:32:22;26.00;99.90
12887;DHT22;6511;49.746;6.094;2022-08-18T16:34:47;26.00;99.90
12887;DHT22;6511;49.746;6.094;2022-08-18T16:37:13;26.20;99.90
12887;DHT22;6511;49.746;6.094;2022-08-18T16:39:39;26.10;99.90
12887;DHT22;6511;49.746;6.094;2022-08-18T16:42:05;26.00;99.90
12887;DHT22;6511;49.746;6.094;2022-08-18T16:44:31;25.90;99.90
12887;DHT22;6511;49.746;6.094;2022-08-18T16:46:58;25.80;99.90
12887;DHT22;6511;49.746;6.094;2022-08-18T16:49:27;25.80;99.90
12887;DHT22;6511;49.746;6.094;2022-08-18T16:51:53;25.70;99.90
12887;DHT22;6511;49.746;6.094;2022-08-18T16:54:18;25.70;99.90
12887;DHT22;6511;49.746;6.094;2022-08-18T16:56:44;25.80;99.90
12887;DHT22;6511;49.746;6.094;2022-08-18T16:59:10;25.60;99.90
12887;DHT22;6511;49.746;6.094;2022-08-18T17:01:54;25.70;99.90
12887;DHT22;6511;49.746;6.094;2022-08-18T17:04:38;25.60;99.90
12887;DHT22;6511;49.746;6.094;2022-08-18T17:07:05;25.70;99.90
12887;DHT22;6511;49.746;6.094;2022-08-18T17:09:32;25.60;99.90
12887;DHT22;6511;49.746;6.094;2022-08-18T17:11:58;25.60;99.90
12887;DHT22;6511;49.746;6.094;2022-08-18T17:14:27;25.40;99.90
12887;DHT22;6511;49.746;6.094;2022-08-18T17:16:53;25.30;99.90
12887;DHT22;6511;49.746;6.094;2022-08-18T17:19:21;25.30;99.90
12887;DHT22;6511;49.746;6.094;2022-08-18T17:21:47;25.30;99.90
12887;DHT22;6511;49.746;6.094;2022-08-18T17:24:13;25.20;99.90
12887;DHT22;6511;49.746;6.094;2022-08-18T17:29:49;25.10;99.90
12887;DHT22;6511;49.746;6.094;2022-08-18T17:32:19;25.10;99.90
12887;DHT22;6511;49.746;6.094;2022-08-18T17:34:53;25.00;99.90
12887;DHT22;6511;49.746;6.094;2022-08-18T17:37:22;25.00;99.90
12887;DHT22;6511;49.746;6.094;2022-08-18T17:40:05;24.90;99.90
12887;DHT22;6511;49.746;6.094;2022-08-18T17:42:33;24.90;99.90
12887;DHT22;6511;49.746;6.094;2022-08-18T17:45:07;24.80;99.90
12887;DHT22;6511;49.746;6.094;2022-08-18T17:50:57;24.60;99.90
12887;DHT22;6511;49.746;6.094;2022-08-18T17:53:43;24.50;99.90
12887;DHT22;6511;49.746;6.094;2022-08-18T17:58:53;24.20;99.90
12887;DHT22;6511;49.746;6.094;2022-08-18T18:01:22;24.10;99.90
12887;DHT22;6511;49.746;6.094;2022-08-18T18:03:49;24.00;99.90
12887;DHT22;6511;49.746;6.094;2022-08-18T18:06:39;23.90;99.90
12887;DHT22;6511;49.746;6.094;2022-08-18T18:11:46;23.60;99.90
12887;DHT22;6511;49.746;6.094;2022-08-18T18:14:36;23.50;99.90
12887;DHT22;6511;49.746;6.094;2022-08-18T18:17:10;23.40;99.90
12887;DHT22;6511;49.746;6.094;2022-08-18T18:19:39;23.20;99.90
12887;DHT22;6511;49.746;6.094;2022-08-18T18:22:17;23.10;99.90
12887;DHT22;6511;49.746;6.094;2022-08-18T18:24:56;23.00;99.90
12887;DHT22;6511;49.746;6.094;2022-08-18T18:27:37;23.00;99.90
12887;DHT22;6511;49.746;6.094;2022-08-18T18:35:24;22.80;99.90
12887;DHT22;6511;49.746;6.094;2022-08-18T18:38:00;22.80;99.90
12887;DHT22;6511;49.746;6.094;2022-08-18T18:40:39;22.70;99.90
12887;DHT22;6511;49.746;6.094;2022-08-18T18:43:24;22.60;99.90
12887;DHT22;6511;49.746;6.094;2022-08-18T18:49:14;22.30;99.90
12887;DHT22;6511;49.746;6.094;2022-08-18T18:52:10;22.20;99.90
12887;DHT22;6511;49.746;6.094;2022-08-18T19:00:16;22.00;99.90
12887;DHT22;6511;49.746;6.094;2022-08-18T19:13:44;21.50;99.90
12887;DHT22;6511;49.746;6.094;2022-08-18T19:16:30;21.50;99.90
12887;DHT22;6511;49.746;6.094;2022-08-18T19:19:25;21.40;99.90
12887;DHT22;6511;49.746;6.094;2022-08-18T19:22:02;21.30;99.90
12887;DHT22;6511;49.746;6.094;2022-08-18T19:24:29;21.30;99.90
12887;DHT22;6511;49.746;6.094;2022-08-18T19:26:59;21.30;99.90
12887;DHT22;6511;49.746;6.094;2022-08-18T19:29:40;21.20;99.90
12887;DHT22;6511;49.746;6.094;2022-08-18T19:32:11;21.20;99.90
12887;DHT22;6511;49.746;6.094;2022-08-18T19:34:40;21.10;99.90
12887;DHT22;6511;49.746;6.094;2022-08-18T19:37:20;21.00;99.90